sensor_id;sensor_type;location;lat;lon;timestamp;temperature;humidity
19174;DHT22;9719;49.322;8.536;2022-09-20T00:00:36;12.80;87.40
19174;DHT22;9719;49.322;8.536;2022-09-20T00:05:39;12.80;87.50
19174;DHT22;9719;49.322;8.536;2022-09-20T00:10:41;12.90;87.60
19174;DHT22;9719;49.322;8.536;2022-09-20T00:15:45;13.00;87.60
19174;DHT22;9719;49.322;8.536;2022-09-20T00:20:48;12.90;87.60
19174;DHT22;9719;49.322;8.536;2022-09-20T00:25:55;12.90;87.80
19174;DHT22;9719;49.322;8.536;2022-09-20T00:30:59;13.00;87.80
19174;DHT22;9719;49.322;8.536;2022-09-20T00:36:01;13.00;87.80
19174;DHT22;9719;49.322;8.536;2022-09-20T00:41:03;12.90;87.70
19174;DHT22;9719;49.322;8.536;2022-09-20T00:46:17;12.90;87.60
19174;DHT22;9719;49.322;8.536;2022-09-20T00:51:24;12.80;87.70
19174;DHT22;9719;49.322;8.536;2022-09-20T00:56:29;12.80;87.80
19174;DHT22;9719;49.322;8.536;2022-09-20T01:01:35;12.80;87.80
19174;DHT22;9719;49.322;8.536;2022-09-20T01:06:37;12.80;87.50
19174;DHT22;9719;49.322;8.536;2022-09-20T01:11:40;12.80;87.50
19174;DHT22;9719;49.322;8.536;2022-09-20T01:16:44;12.60;87.30
19174;DHT22;9719;49.322;8.536;2022-09-20T01:21:46;12.50;87.50
19174;DHT22;9719;49.322;8.536;2022-09-20T01:27:13;12.50;87.50
19174;DHT22;9719;49.322;8.536;2022-09-20T01:32:23;12.50;87.50
19174;DHT22;9719;49.322;8.536;2022-09-20T01:37:29;12.50;87.60
19174;DHT22;9719;49.322;8.536;2022-09-20T01:42:37;12.50;87.70
19174;DHT22;9719;49.322;8.536;2022-09-20T01:47:47;12.50;87.80
19174;DHT22;9719;49.322;8.536;2022-09-20T02:20:46;12.60;87.70
19174;DHT22;9719;49.322;8.536;2022-09-20T02:26:02;13.00;88.00
19174;DHT22;9719;49.322;8.536;2022-09-20T02:31:12;12.50;87.80
19174;DHT22;9719;49.322;8.536;2022-09-20T02:36:29;12.50;87.90
19174;DHT22;9719;49.322;8.536;2022-09-20T02:41:51;12.50;87.80
19174;DHT22;9719;49.322;8.536;2022-09-20T02:46:59;12.40;87.70
19174;DHT22;9719;49.322;8.536;2022-09-20T02:52:12;12.40;87.90
19174;DHT22;9719;49.322;8.536;2022-09-20T02:57:22;12.40;88.10
19174;DHT22;9719;49.322;8.536;2022-09-20T03:02:29;12.40;88.10
19174;DHT22;9719;49.322;8.536;2022-09-20T03:07:45;12.40;88.10
19174;DHT22;9719;49.322;8.536;2022-09-20T03:12:58;12.50;88.10
19174;DHT22;9719;49.322;8.536;2022-09-20T03:18:06;12.50;87.90
19174;DHT22;9719;49.322;8.536;2022-09-20T03:23:19;12.40;88.00
19174;DHT22;9719;49.322;8.536;2022-09-20T03:28:50;12.40;88.20
19174;DHT22;9719;49.322;8.536;2022-09-20T03:34:03;12.30;88.10
19174;DHT22;9719;49.322;8.536;2022-09-20T03:39:36;12.30;88.20
19174;DHT22;9719;49.322;8.536;2022-09-20T03:50:32;12.40;88.30
19174;DHT22;9719;49.322;8.536;2022-09-20T04:01:36;12.40;88.10
19174;DHT22;9719;49.322;8.536;2022-09-20T04:12:27;12.40;88.20
19174;DHT22;9719;49.322;8.536;2022-09-20T04:17:46;12.30;88.10
19174;DHT22;9719;49.322;8.536;2022-09-20T04:22:53;12.30;88.30
19174;DHT22;9719;49.322;8.536;2022-09-20T04:28:01;12.30;88.40
19174;DHT22;9719;49.322;8.536;2022-09-20T04:33:14;12.20;88.10
19174;DHT22;9719;49.322;8.536;2022-09-20T04:38:20;12.10;88.30
19174;DHT22;9719;49.322;8.536;2022-09-20T04:43:59;12.10;88.40
19174;DHT22;9719;49.322;8.536;2022-09-20T04:55:22;11.80;87.80
19174;DHT22;9719;49.322;8.536;2022-09-20T05:00:36;11.70;87.80
19174;DHT22;9719;49.322;8.536;2022-09-20T05:05:55;11.50;87.90
19174;DHT22;9719;49.322;8.536;2022-09-20T05:16:46;11.30;88.00
19174;DHT22;9719;49.322;8.536;2022-09-20T05:27:40;11.10;88.40
19174;DHT22;9719;49.322;8.536;2022-09-20T05:32:46;11.10;88.60
19174;DHT22;9719;49.322;8.536;2022-09-20T05:38:00;11.00;88.60
19174;DHT22;9719;49.322;8.536;2022-09-20T05:43:09;11.00;88.70
19174;DHT22;9719;49.322;8.536;2022-09-20T05:48:13;10.90;88.80
19174;DHT22;9719;49.322;8.536;2022-09-20T05:53:52;11.00;88.80
19174;DHT22;9719;49.322;8.536;2022-09-20T05:59:23;10.90;89.00
19174;DHT22;9719;49.322;8.536;2022-09-20T06:04:37;10.90;89.20
19174;DHT22;9719;49.322;8.536;2022-09-20T06:09:54;10.80;89.40
19174;DHT22;9719;49.322;8.536;2022-09-20T06:15:08;10.90;89.60
19174;DHT22;9719;49.322;8.536;2022-09-20T06:20:19;10.90;89.70
19174;DHT22;9719;49.322;8.536;2022-09-20T06:25:24;10.90;89.80
19174;DHT22;9719;49.322;8.536;2022-09-20T06:30:33;11.10;90.10
19174;DHT22;9719;49.322;8.536;2022-09-20T06:35:40;11.30;90.20
19174;DHT22;9719;49.322;8.536;2022-09-20T06:40:46;11.50;90.20
19174;DHT22;9719;49.322;8.536;2022-09-20T06:46:16;11.70;90.00
19174;DHT22;9719;49.322;8.536;2022-09-20T06:51:19;11.90;89.80
19174;DHT22;9719;49.322;8.536;2022-09-20T06:56:23;12.10;89.90
19174;DHT22;9719;49.322;8.536;2022-09-20T07:01:27;12.30;89.90
19174;DHT22;9719;49.322;8.536;2022-09-20T07:06:29;12.50;89.70
19174;DHT22;9719;49.322;8.536;2022-09-20T07:11:31;12.70;89.50
19174;DHT22;9719;49.322;8.536;2022-09-20T07:16:36;12.80;89.40
19174;DHT22;9719;49.322;8.536;2022-09-20T07:21:38;13.00;89.40
19174;DHT22;9719;49.322;8.536;2022-09-20T07:26:53;13.20;89.10
19174;DHT22;9719;49.322;8.536;2022-09-20T07:31:57;13.50;88.90
19174;DHT22;9719;49.322;8.536;2022-09-20T07:36:59;13.60;88.40
19174;DHT22;9719;49.322;8.536;2022-09-20T07:42:01;13.80;88.30
19174;DHT22;9719;49.322;8.536;2022-09-20T07:47:08;14.00;88.20
19174;DHT22;9719;49.322;8.536;2022-09-20T07:52:10;14.30;87.30
19174;DHT22;9719;49.322;8.536;2022-09-20T07:57:14;14.30;86.40
19174;DHT22;9719;49.322;8.536;2022-09-20T08:02:17;14.30;86.70
19174;DHT22;9719;49.322;8.536;2022-09-20T08:07:19;14.50;86.70
19174;DHT22;9719;49.322;8.536;2022-09-20T08:12:21;14.70;86.50
19174;DHT22;9719;49.322;8.536;2022-09-20T08:17:24;14.90;86.00
19174;DHT22;9719;49.322;8.536;2022-09-20T08:22:26;15.00;85.20
19174;DHT22;9719;49.322;8.536;2022-09-20T08:27:28;15.20;85.10
19174;DHT22;9719;49.322;8.536;2022-09-20T08:32:32;15.30;84.50
19174;DHT22;9719;49.322;8.536;2022-09-20T08:37:34;15.30;84.20
19174;DHT22;9719;49.322;8.536;2022-09-20T08:42:36;15.40;84.20
19174;DHT22;9719;49.322;8.536;2022-09-20T08:47:45;15.60;84.00
19174;DHT22;9719;49.322;8.536;2022-09-20T08:52:52;15.80;83.50
19174;DHT22;9719;49.322;8.536;2022-09-20T08:57:56;16.00;82.90
19174;DHT22;9719;49.322;8.536;2022-09-20T09:03:04;16.10;82.60
19174;DHT22;9719;49.322;8.536;2022-09-20T09:08:10;16.10;82.20
19174;DHT22;9719;49.322;8.536;2022-09-20T09:13:22;16.20;81.80
19174;DHT22;9719;49.322;8.536;2022-09-20T09:18:31;16.20;81.60
19174;DHT22;9719;49.322;8.536;2022-09-20T09:23:40;16.20;81.50
19174;DHT22;9719;49.322;8.536;2022-09-20T09:28:42;16.50;81.60
19174;DHT22;9719;49.322;8.536;2022-09-20T09:33:45;16.90;80.50
19174;DHT22;9719;49.322;8.536;2022-09-20T09:38:47;17.00;80.00
19174;DHT22;9719;49.322;8.536;2022-09-20T09:43:57;16.90;79.50
19174;DHT22;9719;49.322;8.536;2022-09-20T09:49:07;16.90;79.10
19174;DHT22;9719;49.322;8.536;2022-09-20T09:54:13;17.10;79.70
19174;DHT22;9719;49.322;8.536;2022-09-20T09:59:41;17.90;78.80
19174;DHT22;9719;49.322;8.536;2022-09-20T10:04:55;18.20;77.90
19174;DHT22;9719;49.322;8.536;2022-09-20T10:10:03;18.30;76.90
19174;DHT22;9719;49.322;8.536;2022-09-20T10:15:23;18.20;75.50
19174;DHT22;9719;49.322;8.536;2022-09-20T10:20:38;17.90;74.70
19174;DHT22;9719;49.322;8.536;2022-09-20T10:25:48;17.70;74.80
19174;DHT22;9719;49.322;8.536;2022-09-20T10:30:58;17.40;74.10
19174;DHT22;9719;49.322;8.536;2022-09-20T10:36:17;17.20;74.70
19174;DHT22;9719;49.322;8.536;2022-09-20T10:41:34;17.10;74.70
19174;DHT22;9719;49.322;8.536;2022-09-20T10:47:03;17.00;74.50
19174;DHT22;9719;49.322;8.536;2022-09-20T10:52:33;16.90;74.70
19174;DHT22;9719;49.322;8.536;2022-09-20T11:03:24;17.60;77.30
19174;DHT22;9719;49.322;8.536;2022-09-20T11:08:32;18.60;76.00
19174;DHT22;9719;49.322;8.536;2022-09-20T11:13:41;19.50;73.20
19174;DHT22;9719;49.322;8.536;2022-09-20T11:18:48;19.90;69.60
19174;DHT22;9719;49.322;8.536;2022-09-20T11:23:59;19.90;68.40
19174;DHT22;9719;49.322;8.536;2022-09-20T11:29:09;19.80;68.00
19174;DHT22;9719;49.322;8.536;2022-09-20T11:34:17;19.40;66.70
19174;DHT22;9719;49.322;8.536;2022-09-20T11:39:28;18.70;66.50
19174;DHT22;9719;49.322;8.536;2022-09-20T11:44:31;18.00;67.30
19174;DHT22;9719;49.322;8.536;2022-09-20T11:49:42;17.50;68.10
19174;DHT22;9719;49.322;8.536;2022-09-20T11:55:17;16.90;69.80
19174;DHT22;9719;49.322;8.536;2022-09-20T12:00:28;16.60;70.30
19174;DHT22;9719;49.322;8.536;2022-09-20T12:05:32;16.50;70.70
19174;DHT22;9719;49.322;8.536;2022-09-20T12:10:38;16.60;70.70
19174;DHT22;9719;49.322;8.536;2022-09-20T12:15:41;16.90;70.30
19174;DHT22;9719;49.322;8.536;2022-09-20T12:21:03;17.20;69.10
19174;DHT22;9719;49.322;8.536;2022-09-20T12:26:07;17.30;68.90
19174;DHT22;9719;49.322;8.536;2022-09-20T12:31:38;17.20;67.40
19174;DHT22;9719;49.322;8.536;2022-09-20T12:37:15;17.20;66.90
19174;DHT22;9719;49.322;8.536;2022-09-20T12:42:30;17.10;66.60
19174;DHT22;9719;49.322;8.536;2022-09-20T12:47:35;17.10;66.90
19174;DHT22;9719;49.322;8.536;2022-09-20T12:52:51;17.40;66.80
19174;DHT22;9719;49.322;8.536;2022-09-20T12:58:00;17.80;65.90
19174;DHT22;9719;49.322;8.536;2022-09-20T13:03:12;18.10;64.70
19174;DHT22;9719;49.322;8.536;2022-09-20T13:08:25;17.90;64.90
19174;DHT22;9719;49.322;8.536;2022-09-20T13:13:34;17.90;64.50
19174;DHT22;9719;49.322;8.536;2022-09-20T13:18:38;18.00;65.00
19174;DHT22;9719;49.322;8.536;2022-09-20T13:23:47;18.10;64.30
19174;DHT22;9719;49.322;8.536;2022-09-20T13:28:54;18.20;63.70
19174;DHT22;9719;49.322;8.536;2022-09-20T13:34:18;18.20;63.50
19174;DHT22;9719;49.322;8.536;2022-09-20T13:39:24;18.30;63.90
19174;DHT22;9719;49.322;8.536;2022-09-20T13:44:29;18.40;62.80
19174;DHT22;9719;49.322;8.536;2022-09-20T13:49:33;18.50;63.00
19174;DHT22;9719;49.322;8.536;2022-09-20T13:54:35;18.60;61.80
19174;DHT22;9719;49.322;8.536;2022-09-20T13:59:42;18.60;60.20
19174;DHT22;9719;49.322;8.536;2022-09-20T14:04:46;18.50;60.00
19174;DHT22;9719;49.322;8.536;2022-09-20T14:09:50;18.20;60.00
19174;DHT22;9719;49.322;8.536;2022-09-20T14:14:54;18.00;60.30
19174;DHT22;9719;49.322;8.536;2022-09-20T14:19:56;17.90;60.00
19174;DHT22;9719;49.322;8.536;2022-09-20T14:25:00;17.80;60.30
19174;DHT22;9719;49.322;8.536;2022-09-20T14:30:05;17.70;59.80
19174;DHT22;9719;49.322;8.536;2022-09-20T14:35:14;17.50;60.40
19174;DHT22;9719;49.322;8.536;2022-09-20T14:40:25;17.30;60.60
19174;DHT22;9719;49.322;8.536;2022-09-20T14:45:31;17.20;61.30
19174;DHT22;9719;49.322;8.536;2022-09-20T14:50:35;17.20;61.40
19174;DHT22;9719;49.322;8.536;2022-09-20T14:55:38;17.30;61.70
19174;DHT22;9719;49.322;8.536;2022-09-20T15:00:48;17.20;61.30
19174;DHT22;9719;49.322;8.536;2022-09-20T15:05:51;17.20;61.70
19174;DHT22;9719;49.322;8.536;2022-09-20T15:10:53;17.20;62.00
19174;DHT22;9719;49.322;8.536;2022-09-20T15:15:57;17.10;62.40
19174;DHT22;9719;49.322;8.536;2022-09-20T15:20:59;17.10;62.60
19174;DHT22;9719;49.322;8.536;2022-09-20T15:26:02;17.10;63.00
19174;DHT22;9719;49.322;8.536;2022-09-20T15:31:05;17.10;63.10
19174;DHT22;9719;49.322;8.536;2022-09-20T15:36:09;17.10;63.30
19174;DHT22;9719;49.322;8.536;2022-09-20T15:41:12;17.10;63.20
19174;DHT22;9719;49.322;8.536;2022-09-20T15:46:20;17.00;63.30
19174;DHT22;9719;49.322;8.536;2022-09-20T15:51:22;16.90;63.00
19174;DHT22;9719;49.322;8.536;2022-09-20T15:56:26;16.90;63.50
19174;DHT22;9719;49.322;8.536;2022-09-20T16:01:31;16.80;63.30
19174;DHT22;9719;49.322;8.536;2022-09-20T16:06:35;16.80;62.90
19174;DHT22;9719;49.322;8.536;2022-09-20T16:11:38;16.80;63.20
19174;DHT22;9719;49.322;8.536;2022-09-20T16:16:41;16.80;63.00
19174;DHT22;9719;49.322;8.536;2022-09-20T16:21:44;16.90;62.60
19174;DHT22;9719;49.322;8.536;2022-09-20T16:26:48;16.80;62.60
19174;DHT22;9719;49.322;8.536;2022-09-20T16:31:52;16.70;62.30
19174;DHT22;9719;49.322;8.536;2022-09-20T16:36:56;16.60;62.80
19174;DHT22;9719;49.322;8.536;2022-09-20T16:42:01;16.60;62.50
19174;DHT22;9719;49.322;8.536;2022-09-20T16:47:08;16.50;62.60
19174;DHT22;9719;49.322;8.536;2022-09-20T16:52:11;16.40;62.80
19174;DHT22;9719;49.322;8.536;2022-09-20T16:57:13;16.40;63.00
19174;DHT22;9719;49.322;8.536;2022-09-20T17:02:16;16.40;63.40
19174;DHT22;9719;49.322;8.536;2022-09-20T17:07:18;16.30;63.80
19174;DHT22;9719;49.322;8.536;2022-09-20T17:12:25;16.20;64.10
19174;DHT22;9719;49.322;8.536;2022-09-20T17:17:32;16.10;64.30
19174;DHT22;9719;49.322;8.536;2022-09-20T17:22:34;16.10;64.50
19174;DHT22;9719;49.322;8.536;2022-09-20T17:27:36;16.00;65.00
19174;DHT22;9719;49.322;8.536;2022-09-20T17:32:40;16.00;65.50
19174;DHT22;9719;49.322;8.536;2022-09-20T17:37:50;16.60;66.00
19174;DHT22;9719;49.322;8.536;2022-09-20T17:42:52;15.80;66.00
19174;DHT22;9719;49.322;8.536;2022-09-20T17:47:57;15.70;66.40
19174;DHT22;9719;49.322;8.536;2022-09-20T17:52:59;15.50;66.80
19174;DHT22;9719;49.322;8.536;2022-09-20T17:58:01;15.40;67.10
19174;DHT22;9719;49.322;8.536;2022-09-20T18:03:04;15.30;67.20
19174;DHT22;9719;49.322;8.536;2022-09-20T18:08:06;15.10;67.70
19174;DHT22;9719;49.322;8.536;2022-09-20T18:13:11;15.00;67.90
19174;DHT22;9719;49.322;8.536;2022-09-20T18:18:14;14.80;68.40
19174;DHT22;9719;49.322;8.536;2022-09-20T18:23:17;14.60;69.00
19174;DHT22;9719;49.322;8.536;2022-09-20T18:28:19;14.50;69.60
19174;DHT22;9719;49.322;8.536;2022-09-20T18:33:22;14.30;69.80
19174;DHT22;9719;49.322;8.536;2022-09-20T18:38:24;14.30;70.10
19174;DHT22;9719;49.322;8.536;2022-09-20T18:43:27;14.10;70.30
19174;DHT22;9719;49.322;8.536;2022-09-20T18:48:32;14.00;70.80
19174;DHT22;9719;49.322;8.536;2022-09-20T18:53:36;13.90;71.20
19174;DHT22;9719;49.322;8.536;2022-09-20T18:58:38;13.80;71.80
19174;DHT22;9719;49.322;8.536;2022-09-20T19:03:54;13.70;72.10
19174;DHT22;9719;49.322;8.536;2022-09-20T19:09:03;13.70;72.50
19174;DHT22;9719;49.322;8.536;2022-09-20T19:14:22;13.70;72.60
19174;DHT22;9719;49.322;8.536;2022-09-20T19:19:47;13.60;72.70
19174;DHT22;9719;49.322;8.536;2022-09-20T19:25:03;13.40;72.90
19174;DHT22;9719;49.322;8.536;2022-09-20T19:30:10;13.20;73.50
19174;DHT22;9719;49.322;8.536;2022-09-20T19:35:18;13.10;73.60
19174;DHT22;9719;49.322;8.536;2022-09-20T19:40:25;12.90;73.90
19174;DHT22;9719;49.322;8.536;2022-09-20T19:45:33;12.90;74.30
19174;DHT22;9719;49.322;8.536;2022-09-20T19:50:41;13.00;74.30
19174;DHT22;9719;49.322;8.536;2022-09-20T19:55:48;13.00;74.50
19174;DHT22;9719;49.322;8.536;2022-09-20T20:00:52;13.00;74.70
19174;DHT22;9719;49.322;8.536;2022-09-20T20:05:58;13.00;74.80
19174;DHT22;9719;49.322;8.536;2022-09-20T20:11:07;13.00;75.10
19174;DHT22;9719;49.322;8.536;2022-09-20T20:16:16;13.00;75.30
19174;DHT22;9719;49.322;8.536;2022-09-20T20:21:27;12.80;75.30
19174;DHT22;9719;49.322;8.536;2022-09-20T20:26:32;12.80;75.50
19174;DHT22;9719;49.322;8.536;2022-09-20T20:31:34;12.80;75.70
19174;DHT22;9719;49.322;8.536;2022-09-20T20:36:38;12.70;76.00
19174;DHT22;9719;49.322;8.536;2022-09-20T20:41:40;12.70;76.10
19174;DHT22;9719;49.322;8.536;2022-09-20T20:46:42;12.70;76.20
19174;DHT22;9719;49.322;8.536;2022-09-20T20:51:48;12.60;76.30
19174;DHT22;9719;49.322;8.536;2022-09-20T20:56:50;12.50;76.60
19174;DHT22;9719;49.322;8.536;2022-09-20T21:01:52;12.50;76.80
19174;DHT22;9719;49.322;8.536;2022-09-20T21:06:55;12.40;76.90
19174;DHT22;9719;49.322;8.536;2022-09-20T21:11:58;12.40;77.20
19174;DHT22;9719;49.322;8.536;2022-09-20T21:17:02;12.50;77.30
19174;DHT22;9719;49.322;8.536;2022-09-20T21:22:05;12.40;77.40
19174;DHT22;9719;49.322;8.536;2022-09-20T21:27:07;12.40;77.70
19174;DHT22;9719;49.322;8.536;2022-09-20T21:32:09;12.40;77.90
19174;DHT22;9719;49.322;8.536;2022-09-20T21:37:13;12.40;78.40
19174;DHT22;9719;49.322;8.536;2022-09-20T21:42:15;12.40;78.40
19174;DHT22;9719;49.322;8.536;2022-09-20T21:47:17;12.40;78.30
19174;DHT22;9719;49.322;8.536;2022-09-20T21:52:21;12.40;78.50
19174;DHT22;9719;49.322;8.536;2022-09-20T21:57:23;12.40;78.60
19174;DHT22;9719;49.322;8.536;2022-09-20T22:02:26;12.40;78.40
19174;DHT22;9719;49.322;8.536;2022-09-20T22:07:30;12.30;78.60
19174;DHT22;9719;49.322;8.536;2022-09-20T22:12:32;12.20;78.40
19174;DHT22;9719;49.322;8.536;2022-09-20T22:17:34;12.10;78.60
19174;DHT22;9719;49.322;8.536;2022-09-20T22:22:37;12.00;78.70
19174;DHT22;9719;49.322;8.536;2022-09-20T22:27:39;11.80;79.00
19174;DHT22;9719;49.322;8.536;2022-09-20T22:32:42;10.40;78.40
19174;DHT22;9719;49.322;8.536;2022-09-20T22:37:46;11.80;79.50
19174;DHT22;9719;49.322;8.536;2022-09-20T22:42:48;11.60;79.60
19174;DHT22;9719;49.322;8.536;2022-09-20T22:47:49;11.50;79.80
19174;DHT22;9719;49.322;8.536;2022-09-20T22:52:53;11.50;80.10
19174;DHT22;9719;49.322;8.536;2022-09-20T22:57:55;11.50;80.20
19174;DHT22;9719;49.322;8.536;2022-09-20T23:02:57;11.40;80.20
19174;DHT22;9719;49.322;8.536;2022-09-20T23:08:01;11.30;80.20
19174;DHT22;9719;49.322;8.536;2022-09-20T23:13:03;11.20;80.40
19174;DHT22;9719;49.322;8.536;2022-09-20T23:18:05;11.00;80.20
19174;DHT22;9719;49.322;8.536;2022-09-20T23:23:08;11.00;80.50
19174;DHT22;9719;49.322;8.536;2022-09-20T23:28:10;10.80;80.80
19174;DHT22;9719;49.322;8.536;2022-09-20T23:33:12;10.80;80.80
19174;DHT22;9719;49.322;8.536;2022-09-20T23:38:16;10.60;80.80
19174;DHT22;9719;49.322;8.536;2022-09-20T23:43:18;10.50;81.20
19174;DHT22;9719;49.322;8.536;2022-09-20T23:48:20;10.50;81.30
19174;DHT22;9719;49.322;8.536;2022-09-20T23:53:23;10.40;81.20
19174;DHT22;9719;49.322;8.536;2022-09-20T23:58:25;10.30;81.50
